sensor_id;sensor_type;location;lat;lon;timestamp;pressure;altitude;pressure_sealevel;temperature;humidity
77725;BME280;66892;53.236;6.550;2024-03-17T00:02:21;102483.22;;;2.02;100.00
77725;BME280;66892;53.236;6.550;2024-03-17T00:04:49;102487.66;;;2.03;100.00
77725;BME280;66892;53.236;6.550;2024-03-17T00:07:15;102488.66;;;2.05;100.00
77725;BME280;66892;53.236;6.550;2024-03-17T00:09:41;102489.97;;;2.13;100.00
77725;BME280;66892;53.236;6.550;2024-03-17T00:12:08;102478.81;;;2.16;100.00
77725;BME280;66892;53.236;6.550;2024-03-17T00:14:34;102484.84;;;2.15;100.00
77725;BME280;66892;53.236;6.550;2024-03-17T00:17:00;102478.38;;;2.08;100.00
77725;BME280;66892;53.236;6.550;2024-03-17T00:19:27;102482.19;;;1.99;100.00
77725;BME280;66892;53.236;6.550;2024-03-17T00:21:54;102483.53;;;1.92;100.00
77725;BME280;66892;53.236;6.550;2024-03-17T00:24:20;102482.19;;;1.84;100.00
77725;BME280;66892;53.236;6.550;2024-03-17T00:26:46;102484.25;;;1.75;100.00
77725;BME280;66892;53.236;6.550;2024-03-17T00:29:12;102484.16;;;1.74;100.00
77725;BME280;66892;53.236;6.550;2024-03-17T00:31:40;102474.38;;;1.70;100.00
77725;BME280;66892;53.236;6.550;2024-03-17T00:34:06;102477.44;;;1.63;100.00
77725;BME280;66892;53.236;6.550;2024-03-17T00:36:32;102478.22;;;1.62;100.00
77725;BME280;66892;53.236;6.550;2024-03-17T00:39:00;102475.44;;;1.58;100.00
77725;BME280;66892;53.236;6.550;2024-03-17T00:41:26;102478.59;;;1.53;100.00
77725;BME280;66892;53.236;6.550;2024-03-17T00:43:52;102474.19;;;1.52;100.00
77725;BME280;66892;53.236;6.550;2024-03-17T00:46:19;102478.69;;;1.54;100.00
77725;BME280;66892;53.236;6.550;2024-03-17T00:48:47;102478.25;;;1.47;100.00
77725;BME280;66892;53.236;6.550;2024-03-17T00:51:13;102471.03;;;1.43;100.00
77725;BME280;66892;53.236;6.550;2024-03-17T00:53:39;102466.63;;;1.42;100.00
77725;BME280;66892;53.236;6.550;2024-03-17T00:56:07;102471.94;;;1.43;100.00
77725;BME280;66892;53.236;6.550;2024-03-17T00:58:33;102469.78;;;1.36;100.00
77725;BME280;66892;53.236;6.550;2024-03-17T01:00:59;102467.63;;;1.29;100.00
77725;BME280;66892;53.236;6.550;2024-03-17T01:03:25;102468.16;;;1.24;100.00
77725;BME280;66892;53.236;6.550;2024-03-17T01:05:53;102470.22;;;1.15;100.00
77725;BME280;66892;53.236;6.550;2024-03-17T01:08:20;102465.78;;;1.14;100.00
77725;BME280;66892;53.236;6.550;2024-03-17T01:10:47;102459.44;;;1.09;100.00
77725;BME280;66892;53.236;6.550;2024-03-17T01:13:17;102467.66;;;1.01;100.00
77725;BME280;66892;53.236;6.550;2024-03-17T01:15:43;102461.59;;;0.88;100.00
77725;BME280;66892;53.236;6.550;2024-03-17T01:18:09;102462.84;;;0.80;100.00
77725;BME280;66892;53.236;6.550;2024-03-17T01:20:36;102465.09;;;0.74;100.00
77725;BME280;66892;53.236;6.550;2024-03-17T01:23:03;102467.41;;;0.69;100.00
77725;BME280;66892;53.236;6.550;2024-03-17T01:25:29;102458.78;;;0.70;100.00
77725;BME280;66892;53.236;6.550;2024-03-17T01:27:56;102460.56;;;0.71;100.00
77725;BME280;66892;53.236;6.550;2024-03-17T01:30:24;102461.47;;;0.72;100.00
77725;BME280;66892;53.236;6.550;2024-03-17T01:32:51;102449.88;;;0.67;100.00
77725;BME280;66892;53.236;6.550;2024-03-17T01:35:17;102445.59;;;0.67;100.00
77725;BME280;66892;53.236;6.550;2024-03-17T01:37:43;102442.69;;;0.63;100.00
77725;BME280;66892;53.236;6.550;2024-03-17T01:40:10;102442.69;;;0.63;100.00
77725;BME280;66892;53.236;6.550;2024-03-17T01:42:36;102439.75;;;0.71;100.00
77725;BME280;66892;53.236;6.550;2024-03-17T01:45:25;102432.53;;;0.80;100.00
77725;BME280;66892;53.236;6.550;2024-03-17T01:47:52;102440.66;;;0.72;100.00
77725;BME280;66892;53.236;6.550;2024-03-17T01:50:19;102434.88;;;0.63;100.00
77725;BME280;66892;53.236;6.550;2024-03-17T01:52:51;102432.81;;;0.57;100.00
77725;BME280;66892;53.236;6.550;2024-03-17T01:55:19;102436.19;;;0.56;100.00
77725;BME280;66892;53.236;6.550;2024-03-17T01:57:46;102431.38;;;0.62;100.00
77725;BME280;66892;53.236;6.550;2024-03-17T02:00:12;102430.22;;;0.72;100.00
77725;BME280;66892;53.236;6.550;2024-03-17T02:02:41;102425.81;;;0.71;100.00
77725;BME280;66892;53.236;6.550;2024-03-17T02:05:07;102427.97;;;0.63;100.00
77725;BME280;66892;53.236;6.550;2024-03-17T02:07:34;102425.50;;;0.51;100.00
77725;BME280;66892;53.236;6.550;2024-03-17T02:10:00;102424.13;;;0.43;100.00
77725;BME280;66892;53.236;6.550;2024-03-17T02:12:27;102430.84;;;0.40;100.00
77725;BME280;66892;53.236;6.550;2024-03-17T02:14:53;102425.44;;;0.37;100.00
77725;BME280;66892;53.236;6.550;2024-03-17T02:17:19;102423.56;;;0.34;100.00
77725;BME280;66892;53.236;6.550;2024-03-17T02:19:46;102425.84;;;0.30;100.00
77725;BME280;66892;53.236;6.550;2024-03-17T02:22:14;102422.47;;;0.31;100.00
77725;BME280;66892;53.236;6.550;2024-03-17T02:24:41;102424.28;;;0.32;100.00
77725;BME280;66892;53.236;6.550;2024-03-17T02:27:07;102419.06;;;0.32;100.00
77725;BME280;66892;53.236;6.550;2024-03-17T02:29:33;102422.66;;;0.34;100.00
77725;BME280;66892;53.236;6.550;2024-03-17T02:31:59;102423.19;;;0.28;100.00
77725;BME280;66892;53.236;6.550;2024-03-17T02:34:29;102423.84;;;0.26;100.00
77725;BME280;66892;53.236;6.550;2024-03-17T02:36:55;102425.59;;;0.25;100.00
77725;BME280;66892;53.236;6.550;2024-03-17T02:39:23;102419.94;;;0.32;100.00
77725;BME280;66892;53.236;6.550;2024-03-17T02:42:02;102416.72;;;0.36;100.00
77725;BME280;66892;53.236;6.550;2024-03-17T02:44:29;102408.84;;;0.35;100.00
77725;BME280;66892;53.236;6.550;2024-03-17T02:46:56;102415.03;;;0.37;100.00
77725;BME280;66892;53.236;6.550;2024-03-17T02:49:23;102413.34;;;0.37;100.00
77725;BME280;66892;53.236;6.550;2024-03-17T02:51:49;102407.38;;;0.53;100.00
77725;BME280;66892;53.236;6.550;2024-03-17T02:54:15;102414.56;;;0.85;100.00
77725;BME280;66892;53.236;6.550;2024-03-17T02:56:42;102412.06;;;1.16;100.00
77725;BME280;66892;53.236;6.550;2024-03-17T02:59:08;102417.22;;;1.43;100.00
77725;BME280;66892;53.236;6.550;2024-03-17T03:01:34;102416.50;;;1.61;100.00
77725;BME280;66892;53.236;6.550;2024-03-17T03:04:00;102417.59;;;1.80;100.00
77725;BME280;66892;53.236;6.550;2024-03-17T03:06:26;102415.06;;;1.96;100.00
77725;BME280;66892;53.236;6.550;2024-03-17T03:08:52;102420.72;;;2.04;100.00
77725;BME280;66892;53.236;6.550;2024-03-17T03:11:18;102421.84;;;2.09;100.00
77725;BME280;66892;53.236;6.550;2024-03-17T03:13:46;102417.19;;;2.18;100.00
77725;BME280;66892;53.236;6.550;2024-03-17T03:16:13;102411.78;;;2.31;100.00
77725;BME280;66892;53.236;6.550;2024-03-17T03:18:40;102412.31;;;2.40;100.00
77725;BME280;66892;53.236;6.550;2024-03-17T03:21:07;102410.94;;;2.47;100.00
77725;BME280;66892;53.236;6.550;2024-03-17T03:23:33;102409.63;;;2.55;100.00
77725;BME280;66892;53.236;6.550;2024-03-17T03:26:00;102410.13;;;2.64;100.00
77725;BME280;66892;53.236;6.550;2024-03-17T03:28:32;102401.94;;;2.74;100.00
77725;BME280;66892;53.236;6.550;2024-03-17T03:31:00;102399.09;;;2.86;100.00
77725;BME280;66892;53.236;6.550;2024-03-17T03:33:28;102410.34;;;3.01;100.00
77725;BME280;66892;53.236;6.550;2024-03-17T03:35:54;102408.13;;;3.08;100.00
77725;BME280;66892;53.236;6.550;2024-03-17T03:38:21;102404.09;;;3.15;100.00
77725;BME280;66892;53.236;6.550;2024-03-17T03:40:48;102406.16;;;3.21;100.00
77725;BME280;66892;53.236;6.550;2024-03-17T03:43:14;102404.59;;;3.24;100.00
77725;BME280;66892;53.236;6.550;2024-03-17T03:45:40;102405.56;;;3.26;100.00
77725;BME280;66892;53.236;6.550;2024-03-17T03:48:08;102404.97;;;3.32;100.00
77725;BME280;66892;53.236;6.550;2024-03-17T03:50:35;102399.13;;;3.37;100.00
77725;BME280;66892;53.236;6.550;2024-03-17T03:53:01;102399.31;;;3.40;100.00
77725;BME280;66892;53.236;6.550;2024-03-17T03:55:27;102394.25;;;3.43;100.00
77725;BME280;66892;53.236;6.550;2024-03-17T03:57:54;102396.94;;;3.45;100.00
77725;BME280;66892;53.236;6.550;2024-03-17T04:00:20;102398.56;;;3.43;100.00
77725;BME280;66892;53.236;6.550;2024-03-17T04:02:52;102394.25;;;3.43;100.00
77725;BME280;66892;53.236;6.550;2024-03-17T04:05:19;102389.16;;;3.46;100.00
77725;BME280;66892;53.236;6.550;2024-03-17T04:07:47;102383.19;;;3.49;100.00
77725;BME280;66892;53.236;6.550;2024-03-17T04:10:14;102379.91;;;3.53;100.00
77725;BME280;66892;53.236;6.550;2024-03-17T04:12:42;102372.38;;;3.59;100.00
77725;BME280;66892;53.236;6.550;2024-03-17T04:15:09;102373.56;;;3.65;100.00
77725;BME280;66892;53.236;6.550;2024-03-17T04:17:36;102375.47;;;3.69;100.00
77725;BME280;66892;53.236;6.550;2024-03-17T04:20:03;102378.19;;;3.71;100.00
77725;BME280;66892;53.236;6.550;2024-03-17T04:22:32;102377.53;;;3.75;100.00
77725;BME280;66892;53.236;6.550;2024-03-17T04:24:58;102388.13;;;3.78;100.00
77725;BME280;66892;53.236;6.550;2024-03-17T04:27:25;102391.03;;;3.84;100.00
77725;BME280;66892;53.236;6.550;2024-03-17T04:29:52;102391.94;;;3.85;100.00
77725;BME280;66892;53.236;6.550;2024-03-17T04:32:18;102394.72;;;3.88;100.00
77725;BME280;66892;53.236;6.550;2024-03-17T04:34:44;102388.56;;;3.87;100.00
77725;BME280;66892;53.236;6.550;2024-03-17T04:37:10;102392.91;;;3.87;100.00
77725;BME280;66892;53.236;6.550;2024-03-17T04:39:41;102402.47;;;3.86;100.00
77725;BME280;66892;53.236;6.550;2024-03-17T04:42:11;102388.50;;;3.86;100.00
77725;BME280;66892;53.236;6.550;2024-03-17T04:44:37;102390.28;;;3.87;100.00
77725;BME280;66892;53.236;6.550;2024-03-17T04:47:03;102382.59;;;3.90;100.00
77725;BME280;66892;53.236;6.550;2024-03-17T04:49:32;102379.22;;;3.92;100.00
77725;BME280;66892;53.236;6.550;2024-03-17T04:52:00;102381.69;;;3.89;100.00
77725;BME280;66892;53.236;6.550;2024-03-17T04:54:26;102372.25;;;3.93;100.00
77725;BME280;66892;53.236;6.550;2024-03-17T04:56:54;102371.34;;;3.92;100.00
77725;BME280;66892;53.236;6.550;2024-03-17T04:59:20;102370.53;;;3.93;100.00
77725;BME280;66892;53.236;6.550;2024-03-17T05:01:46;102360.91;;;3.92;100.00
77725;BME280;66892;53.236;6.550;2024-03-17T05:04:12;102360.97;;;3.94;100.00
77725;BME280;66892;53.236;6.550;2024-03-17T05:06:38;102356.72;;;3.96;100.00
77725;BME280;66892;53.236;6.550;2024-03-17T05:09:04;102354.94;;;3.95;100.00
77725;BME280;66892;53.236;6.550;2024-03-17T05:11:32;102363.59;;;3.94;100.00
77725;BME280;66892;53.236;6.550;2024-03-17T05:14:01;102354.19;;;3.97;100.00
77725;BME280;66892;53.236;6.550;2024-03-17T05:16:27;102347.22;;;3.98;100.00
77725;BME280;66892;53.236;6.550;2024-03-17T05:18:55;102351.47;;;3.96;100.00
77725;BME280;66892;53.236;6.550;2024-03-17T05:21:21;102353.28;;;3.97;100.00
77725;BME280;66892;53.236;6.550;2024-03-17T05:23:48;102349.09;;;4.00;100.00
77725;BME280;66892;53.236;6.550;2024-03-17T05:26:17;102355.28;;;4.02;100.00
77725;BME280;66892;53.236;6.550;2024-03-17T05:28:43;102349.38;;;4.06;100.00
77725;BME280;66892;53.236;6.550;2024-03-17T05:31:11;102354.84;;;4.11;100.00
77725;BME280;66892;53.236;6.550;2024-03-17T05:33:40;102348.75;;;4.12;100.00
77725;BME280;66892;53.236;6.550;2024-03-17T05:36:06;102354.22;;;4.16;100.00
77725;BME280;66892;53.236;6.550;2024-03-17T05:38:32;102344.56;;;4.15;100.00
77725;BME280;66892;53.236;6.550;2024-03-17T05:41:00;102348.97;;;4.16;100.00
77725;BME280;66892;53.236;6.550;2024-03-17T05:43:27;102347.13;;;4.14;100.00
77725;BME280;66892;53.236;6.550;2024-03-17T05:45:56;102346.34;;;4.16;100.00
77725;BME280;66892;53.236;6.550;2024-03-17T05:48:24;102348.84;;;4.13;100.00
77725;BME280;66892;53.236;6.550;2024-03-17T05:50:50;102355.69;;;4.11;100.00
77725;BME280;66892;53.236;6.550;2024-03-17T05:53:19;102361.31;;;4.19;100.00
77725;BME280;66892;53.236;6.550;2024-03-17T05:55:46;102350.75;;;4.17;100.00
77725;BME280;66892;53.236;6.550;2024-03-17T05:58:13;102346.41;;;4.18;100.00
77725;BME280;66892;53.236;6.550;2024-03-17T06:00:39;102348.84;;;4.13;100.00
77725;BME280;66892;53.236;6.550;2024-03-17T06:03:06;102354.13;;;4.15;100.00
77725;BME280;66892;53.236;6.550;2024-03-17T06:05:34;102356.41;;;4.07;100.00
77725;BME280;66892;53.236;6.550;2024-03-17T06:08:00;102356.13;;;4.01;100.00
77725;BME280;66892;53.236;6.550;2024-03-17T06:10:28;102365.53;;;3.98;100.00
77725;BME280;66892;53.236;6.550;2024-03-17T06:12:54;102369.13;;;4.00;100.00
77725;BME280;66892;53.236;6.550;2024-03-17T06:15:20;102368.22;;;3.99;100.00
77725;BME280;66892;53.236;6.550;2024-03-17T06:17:47;102367.59;;;4.05;100.00
77725;BME280;66892;53.236;6.550;2024-03-17T06:20:13;102362.41;;;4.24;100.00
77725;BME280;66892;53.236;6.550;2024-03-17T06:22:41;102360.66;;;4.42;100.00
77725;BME280;66892;53.236;6.550;2024-03-17T06:25:07;102360.69;;;4.63;100.00
77725;BME280;66892;53.236;6.550;2024-03-17T06:27:33;102363.13;;;4.77;100.00
77725;BME280;66892;53.236;6.550;2024-03-17T06:30:00;102360.91;;;4.87;100.00
77725;BME280;66892;53.236;6.550;2024-03-17T06:32:29;102362.41;;;5.01;100.00
77725;BME280;66892;53.236;6.550;2024-03-17T06:34:56;102351.28;;;5.06;100.00
77725;BME280;66892;53.236;6.550;2024-03-17T06:37:22;102359.41;;;5.12;100.00
77725;BME280;66892;53.236;6.550;2024-03-17T06:39:50;102363.75;;;5.12;100.00
77725;BME280;66892;53.236;6.550;2024-03-17T06:42:16;102367.06;;;5.08;100.00
77725;BME280;66892;53.236;6.550;2024-03-17T06:44:42;102366.16;;;5.07;100.00
77725;BME280;66892;53.236;6.550;2024-03-17T06:47:08;102356.44;;;5.05;100.00
77725;BME280;66892;53.236;6.550;2024-03-17T06:49:34;102371.34;;;5.06;100.00
77725;BME280;66892;53.236;6.550;2024-03-17T06:52:00;102362.94;;;5.13;100.00
77725;BME280;66892;53.236;6.550;2024-03-17T06:54:27;102366.75;;;5.21;100.00
77725;BME280;66892;53.236;6.550;2024-03-17T06:56:54;102366.53;;;5.36;100.00
77725;BME280;66892;53.236;6.550;2024-03-17T06:59:20;102376.09;;;5.56;100.00
77725;BME280;66892;53.236;6.550;2024-03-17T07:01:49;102369.47;;;5.64;100.00
77725;BME280;66892;53.236;6.550;2024-03-17T07:04:16;102363.88;;;5.77;100.00
77725;BME280;66892;53.236;6.550;2024-03-17T07:06:46;102365.84;;;5.82;100.00
77725;BME280;66892;53.236;6.550;2024-03-17T07:09:12;102367.25;;;5.95;100.00
77725;BME280;66892;53.236;6.550;2024-03-17T07:11:38;102377.38;;;6.07;100.00
77725;BME280;66892;53.236;6.550;2024-03-17T07:14:06;102368.28;;;6.21;100.00
77725;BME280;66892;53.236;6.550;2024-03-17T07:16:32;102363.50;;;6.33;100.00
77725;BME280;66892;53.236;6.550;2024-03-17T07:18:58;102368.03;;;6.37;100.00
77725;BME280;66892;53.236;6.550;2024-03-17T07:21:25;102366.19;;;6.34;100.00
77725;BME280;66892;53.236;6.550;2024-03-17T07:23:51;102368.25;;;6.43;100.00
77725;BME280;66892;53.236;6.550;2024-03-17T07:26:17;102368.94;;;6.38;100.00
77725;BME280;66892;53.236;6.550;2024-03-17T07:28:43;102372.59;;;6.43;100.00
77725;BME280;66892;53.236;6.550;2024-03-17T07:31:11;102371.91;;;6.47;100.00
77725;BME280;66892;53.236;6.550;2024-03-17T07:33:37;102366.97;;;6.56;100.00
77725;BME280;66892;53.236;6.550;2024-03-17T07:36:03;102364.75;;;6.66;100.00
77725;BME280;66892;53.236;6.550;2024-03-17T07:38:31;102363.25;;;6.73;100.00
77725;BME280;66892;53.236;6.550;2024-03-17T07:40:58;102360.94;;;6.82;100.00
77725;BME280;66892;53.236;6.550;2024-03-17T07:43:25;102351.66;;;6.92;100.00
77725;BME280;66892;53.236;6.550;2024-03-17T07:46:01;102352.44;;;6.89;100.00
77725;BME280;66892;53.236;6.550;2024-03-17T07:48:30;102367.44;;;6.92;100.00
77725;BME280;66892;53.236;6.550;2024-03-17T07:50:57;102352.59;;;6.94;100.00
77725;BME280;66892;53.236;6.550;2024-03-17T07:53:23;102360.34;;;6.89;100.00
77725;BME280;66892;53.236;6.550;2024-03-17T07:55:57;102350.97;;;6.97;100.00
77725;BME280;66892;53.236;6.550;2024-03-17T07:58:24;102348.31;;;6.96;100.00
77725;BME280;66892;53.236;6.550;2024-03-17T08:00:51;102341.13;;;6.92;100.00
77725;BME280;66892;53.236;6.550;2024-03-17T08:03:17;102342.13;;;6.95;100.00
77725;BME280;66892;53.236;6.550;2024-03-17T08:05:47;102359.22;;;7.06;100.00
77725;BME280;66892;53.236;6.550;2024-03-17T08:08:14;102348.78;;;7.09;100.00
77725;BME280;66892;53.236;6.550;2024-03-17T08:10:40;102344.63;;;7.16;100.00
77725;BME280;66892;53.236;6.550;2024-03-17T08:13:06;102355.69;;;7.31;100.00
77725;BME280;66892;53.236;6.550;2024-03-17T08:15:34;102357.72;;;7.39;100.00
77725;BME280;66892;53.236;6.550;2024-03-17T08:18:01;102362.50;;;7.51;100.00
77725;BME280;66892;53.236;6.550;2024-03-17T08:20:27;102363.63;;;7.58;100.00
77725;BME280;66892;53.236;6.550;2024-03-17T08:22:54;102356.91;;;7.67;100.00
77725;BME280;66892;53.236;6.550;2024-03-17T08:25:20;102358.22;;;7.81;100.00
77725;BME280;66892;53.236;6.550;2024-03-17T08:27:46;102365.94;;;8.04;100.00
77725;BME280;66892;53.236;6.550;2024-03-17T08:30:12;102358.13;;;8.33;100.00
77725;BME280;66892;53.236;6.550;2024-03-17T08:32:39;102363.81;;;8.47;100.00
77725;BME280;66892;53.236;6.550;2024-03-17T08:35:05;102365.00;;;8.57;100.00
77725;BME280;66892;53.236;6.550;2024-03-17T08:37:32;102362.78;;;8.72;100.00
77725;BME280;66892;53.236;6.550;2024-03-17T08:39:59;102362.81;;;8.73;100.00
77725;BME280;66892;53.236;6.550;2024-03-17T08:42:25;102359.31;;;8.74;100.00
77725;BME280;66892;53.236;6.550;2024-03-17T08:44:51;102362.81;;;8.73;100.00
77725;BME280;66892;53.236;6.550;2024-03-17T08:47:17;102359.06;;;8.65;100.00
77725;BME280;66892;53.236;6.550;2024-03-17T08:49:43;102367.66;;;8.58;100.00
77725;BME280;66892;53.236;6.550;2024-03-17T08:52:09;102369.44;;;8.59;100.00
77725;BME280;66892;53.236;6.550;2024-03-17T08:54:35;102367.25;;;8.44;100.00
77725;BME280;66892;53.236;6.550;2024-03-17T08:57:03;102367.25;;;8.44;100.00
77725;BME280;66892;53.236;6.550;2024-03-17T08:59:29;102371.00;;;8.53;100.00
77725;BME280;66892;53.236;6.550;2024-03-17T09:01:55;102371.84;;;8.52;100.00
77725;BME280;66892;53.236;6.550;2024-03-17T09:04:21;102366.16;;;8.66;100.00
77725;BME280;66892;53.236;6.550;2024-03-17T09:06:47;102363.94;;;8.81;100.00
77725;BME280;66892;53.236;6.550;2024-03-17T09:09:13;102356.31;;;8.92;100.00
77725;BME280;66892;53.236;6.550;2024-03-17T09:11:40;102359.56;;;8.82;100.00
77725;BME280;66892;53.236;6.550;2024-03-17T09:14:07;102355.19;;;8.84;100.00
77725;BME280;66892;53.236;6.550;2024-03-17T09:16:34;102356.72;;;9.07;100.00
77725;BME280;66892;53.236;6.550;2024-03-17T09:19:00;102355.53;;;9.29;100.00
77725;BME280;66892;53.236;6.550;2024-03-17T09:21:26;102359.47;;;9.44;100.00
77725;BME280;66892;53.236;6.550;2024-03-17T09:23:52;102350.16;;;9.59;100.00
77725;BME280;66892;53.236;6.550;2024-03-17T09:26:18;102335.06;;;9.90;100.00
77725;BME280;66892;53.236;6.550;2024-03-17T09:28:44;102346.66;;;10.33;98.11
77725;BME280;66892;53.236;6.550;2024-03-17T09:31:11;102339.53;;;10.72;94.24
77725;BME280;66892;53.236;6.550;2024-03-17T09:33:38;102342.47;;;10.44;96.39
77725;BME280;66892;53.236;6.550;2024-03-17T09:36:05;102352.91;;;10.36;96.63
77725;BME280;66892;53.236;6.550;2024-03-17T09:38:35;102342.72;;;10.16;95.27
77725;BME280;66892;53.236;6.550;2024-03-17T09:41:02;102348.69;;;10.08;96.43
77725;BME280;66892;53.236;6.550;2024-03-17T09:43:29;102353.91;;;10.43;96.08
77725;BME280;66892;53.236;6.550;2024-03-17T09:45:55;102332.56;;;10.77;91.92
77725;BME280;66892;53.236;6.550;2024-03-17T09:48:26;102337.47;;;11.02;93.80
77725;BME280;66892;53.236;6.550;2024-03-17T09:50:55;102338.88;;;10.84;89.82
77725;BME280;66892;53.236;6.550;2024-03-17T09:53:23;102340.28;;;10.67;91.22
77725;BME280;66892;53.236;6.550;2024-03-17T09:55:50;102342.34;;;10.38;92.57
77725;BME280;66892;53.236;6.550;2024-03-17T09:58:17;102346.13;;;10.12;93.70
77725;BME280;66892;53.236;6.550;2024-03-17T10:00:43;102338.69;;;9.94;96.15
77725;BME280;66892;53.236;6.550;2024-03-17T10:03:09;102332.44;;;9.90;96.99
77725;BME280;66892;53.236;6.550;2024-03-17T10:05:37;102334.38;;;9.99;97.07
77725;BME280;66892;53.236;6.550;2024-03-17T10:08:03;102334.25;;;9.93;95.87
77725;BME280;66892;53.236;6.550;2024-03-17T10:10:29;102327.09;;;9.89;96.33
77725;BME280;66892;53.236;6.550;2024-03-17T10:12:55;102342.03;;;9.87;96.43
77725;BME280;66892;53.236;6.550;2024-03-17T10:15:22;102344.59;;;9.82;97.47
77725;BME280;66892;53.236;6.550;2024-03-17T10:17:49;102341.81;;;9.78;97.16
77725;BME280;66892;53.236;6.550;2024-03-17T10:20:16;102335.69;;;9.79;97.77
77725;BME280;66892;53.236;6.550;2024-03-17T10:22:59;102332.28;;;9.84;97.58
77725;BME280;66892;53.236;6.550;2024-03-17T10:25:27;102329.72;;;9.87;96.87
77725;BME280;66892;53.236;6.550;2024-03-17T10:27:54;102327.09;;;9.89;96.29
77725;BME280;66892;53.236;6.550;2024-03-17T10:30:21;102321.97;;;9.95;97.02
77725;BME280;66892;53.236;6.550;2024-03-17T10:32:55;102323.66;;;9.91;96.22
77725;BME280;66892;53.236;6.550;2024-03-17T10:35:30;102322.78;;;9.92;95.99
77725;BME280;66892;53.236;6.550;2024-03-17T10:37:59;102317.41;;;9.89;97.16
77725;BME280;66892;53.236;6.550;2024-03-17T10:40:26;102326.09;;;9.84;96.82
77725;BME280;66892;53.236;6.550;2024-03-17T10:42:52;102308.53;;;9.86;96.94
77725;BME280;66892;53.236;6.550;2024-03-17T10:45:18;102309.53;;;9.91;97.09
77725;BME280;66892;53.236;6.550;2024-03-17T10:47:47;102312.22;;;9.92;98.46
77725;BME280;66892;53.236;6.550;2024-03-17T10:50:17;102303.25;;;9.86;95.41
77725;BME280;66892;53.236;6.550;2024-03-17T10:52:45;102299.50;;;9.76;97.24
77725;BME280;66892;53.236;6.550;2024-03-17T10:55:20;102292.25;;;9.66;97.38
77725;BME280;66892;53.236;6.550;2024-03-17T10:57:47;102301.22;;;9.73;96.79
77725;BME280;66892;53.236;6.550;2024-03-17T11:00:16;102291.56;;;9.76;97.28
77725;BME280;66892;53.236;6.550;2024-03-17T11:02:48;102293.44;;;9.80;95.65
77725;BME280;66892;53.236;6.550;2024-03-17T11:05:17;102294.38;;;9.82;95.35
77725;BME280;66892;53.236;6.550;2024-03-17T11:07:45;102285.91;;;9.97;95.47
77725;BME280;66892;53.236;6.550;2024-03-17T11:10:18;102289.44;;;9.99;95.31
77725;BME280;66892;53.236;6.550;2024-03-17T11:12:46;102285.41;;;10.15;96.02
77725;BME280;66892;53.236;6.550;2024-03-17T11:15:38;102284.16;;;10.38;95.08
77725;BME280;66892;53.236;6.550;2024-03-17T11:18:39;102286.38;;;10.60;93.24
77725;BME280;66892;53.236;6.550;2024-03-17T11:21:07;102290.84;;;10.63;90.97
77725;BME280;66892;53.236;6.550;2024-03-17T11:23:38;102277.78;;;10.72;90.95
77725;BME280;66892;53.236;6.550;2024-03-17T11:26:06;102275.25;;;10.78;91.06
77725;BME280;66892;53.236;6.550;2024-03-17T11:28:50;102269.34;;;10.92;89.71
77725;BME280;66892;53.236;6.550;2024-03-17T11:31:37;102272.25;;;11.06;88.91
77725;BME280;66892;53.236;6.550;2024-03-17T11:34:08;102273.13;;;11.06;88.31
77725;BME280;66892;53.236;6.550;2024-03-17T11:36:51;102265.34;;;11.16;87.35
77725;BME280;66892;53.236;6.550;2024-03-17T11:39:19;102267.16;;;11.17;86.82
77725;BME280;66892;53.236;6.550;2024-03-17T11:41:51;102261.69;;;11.09;86.58
77725;BME280;66892;53.236;6.550;2024-03-17T11:44:24;102256.25;;;11.00;85.42
77725;BME280;66892;53.236;6.550;2024-03-17T11:46:54;102244.88;;;11.05;86.96
77725;BME280;66892;53.236;6.550;2024-03-17T11:49:22;102244.06;;;11.11;86.24
77725;BME280;66892;53.236;6.550;2024-03-17T11:51:49;102242.31;;;11.10;84.93
77725;BME280;66892;53.236;6.550;2024-03-17T11:54:20;102233.56;;;11.14;85.50
77725;BME280;66892;53.236;6.550;2024-03-17T11:56:51;102240.53;;;11.09;87.12
77725;BME280;66892;53.236;6.550;2024-03-17T11:59:17;102233.44;;;11.06;87.05
77725;BME280;66892;53.236;6.550;2024-03-17T12:01:44;102228.28;;;11.14;86.42
77725;BME280;66892;53.236;6.550;2024-03-17T12:04:12;102238.91;;;11.19;86.74
77725;BME280;66892;53.236;6.550;2024-03-17T12:06:39;102221.31;;;11.22;84.49
77725;BME280;66892;53.236;6.550;2024-03-17T12:09:09;102234.78;;;11.36;84.39
77725;BME280;66892;53.236;6.550;2024-03-17T12:11:36;102229.63;;;11.46;85.13
77725;BME280;66892;53.236;6.550;2024-03-17T12:14:13;102235.16;;;11.60;82.19
77725;BME280;66892;53.236;6.550;2024-03-17T12:16:46;102227.25;;;11.61;82.55
77725;BME280;66892;53.236;6.550;2024-03-17T12:19:14;102232.69;;;11.71;82.04
77725;BME280;66892;53.236;6.550;2024-03-17T12:21:44;102230.09;;;11.75;79.69
77725;BME280;66892;53.236;6.550;2024-03-17T12:24:14;102220.50;;;11.85;82.52
77725;BME280;66892;53.236;6.550;2024-03-17T12:26:40;102217.94;;;11.88;80.33
77725;BME280;66892;53.236;6.550;2024-03-17T12:29:22;102220.66;;;11.95;81.53
77725;BME280;66892;53.236;6.550;2024-03-17T12:31:49;102212.00;;;12.07;80.34
77725;BME280;66892;53.236;6.550;2024-03-17T12:34:16;102204.00;;;12.04;78.24
77725;BME280;66892;53.236;6.550;2024-03-17T12:36:43;102204.84;;;12.01;78.01
77725;BME280;66892;53.236;6.550;2024-03-17T12:39:17;102204.84;;;12.01;79.27
77725;BME280;66892;53.236;6.550;2024-03-17T12:41:44;102203.00;;;11.96;78.31
77725;BME280;66892;53.236;6.550;2024-03-17T12:44:25;102199.50;;;11.98;78.33
77725;BME280;66892;53.236;6.550;2024-03-17T12:46:54;102191.59;;;12.03;76.87
77725;BME280;66892;53.236;6.550;2024-03-17T12:49:21;102195.22;;;12.11;77.11
77725;BME280;66892;53.236;6.550;2024-03-17T12:51:47;102185.63;;;12.19;77.49
77725;BME280;66892;53.236;6.550;2024-03-17T12:54:13;102179.38;;;12.15;76.00